createdAt,value
2019-02-07T00:02:00.134Z,100594.64
2019-02-07T00:04:51.139Z,100591.49
2019-02-07T00:07:22.688Z,100589.55
2019-02-07T00:09:59.987Z,100584.47
2019-02-07T00:12:36.525Z,100581.98
2019-02-07T00:15:11.427Z,100577.51
2019-02-07T00:17:50.165Z,100581.30
2019-02-07T00:20:22.947Z,100577.61
2019-02-07T00:22:59.940Z,100580.13
2019-02-07T00:25:32.920Z,100577.25
2019-02-07T00:28:12.153Z,100574.41
2019-02-07T00:30:45.796Z,100570.20
2019-02-07T00:33:19.950Z,100565.50
2019-02-07T00:35:58.496Z,100560.19
2019-02-07T00:38:32.903Z,100563.88
2019-02-07T00:41:08.651Z,100559.59
2019-02-07T00:43:41.953Z,100557.48
2019-02-07T00:46:18.133Z,100550.72
2019-02-07T00:48:50.818Z,100548.64
2019-02-07T00:51:45.342Z,100539.63
2019-02-07T00:54:18.340Z,100543.91
2019-02-07T00:57:05.290Z,100533.47
2019-02-07T00:59:36.262Z,100531.13
2019-02-07T01:02:23.017Z,100533.93
2019-02-07T01:04:56.754Z,100529.88
2019-02-07T01:07:45.984Z,100527.41
2019-02-07T01:10:36.287Z,100514.91
2019-02-07T01:13:12.156Z,100514.72
2019-02-07T01:15:47.179Z,100508.20
2019-02-07T01:18:21.671Z,100506.20
2019-02-07T01:21:02.322Z,100506.45
2019-02-07T01:23:42.019Z,100497.25
2019-02-07T01:26:22.628Z,100496.89
2019-02-07T01:29:02.145Z,100497.13
2019-02-07T01:31:35.408Z,100497.72
2019-02-07T01:34:14.360Z,100494.16
2019-02-07T01:36:51.004Z,100476.83
2019-02-07T01:39:25.687Z,100470.22
2019-02-07T01:42:02.702Z,100465.13
2019-02-07T01:44:36.295Z,100473.89
2019-02-07T01:47:10.236Z,100473.47
2019-02-07T01:49:44.153Z,100462.38
2019-02-07T01:52:17.317Z,100451.78
2019-02-07T01:54:54.194Z,100457.34
2019-02-07T01:57:28.964Z,100452.23
2019-02-07T02:00:00.213Z,100440.98
2019-02-07T02:02:39.376Z,100440.59
2019-02-07T02:05:14.023Z,100439.05
2019-02-07T02:07:50.461Z,100433.30
2019-02-07T02:10:28.477Z,100423.82
2019-02-07T02:13:00.114Z,100420.78
2019-02-07T02:15:33.301Z,100416.28
2019-02-07T02:18:09.002Z,100414.28
2019-02-07T02:20:41.496Z,100402.13
2019-02-07T02:23:19.913Z,100399.05
2019-02-07T02:25:53.539Z,100393.43
2019-02-07T02:28:28.309Z,100390.28
2019-02-07T02:31:00.107Z,100394.48
2019-02-07T02:33:34.157Z,100383.78
2019-02-07T02:36:09.242Z,100384.19
2019-02-07T02:38:40.559Z,100382.08
2019-02-07T02:41:31.829Z,100379.92
2019-02-07T02:44:08.859Z,100376.41
2019-02-07T02:46:41.724Z,100367.29
2019-02-07T02:49:18.562Z,100360.98
2019-02-07T02:51:53.735Z,100353.89
2019-02-07T02:54:49.244Z,100349.59
2019-02-07T02:57:26.354Z,100356.59
2019-02-07T03:00:09.056Z,100347.65
2019-02-07T03:02:57.694Z,100341.47
2019-02-07T03:05:56.797Z,100337.84
2019-02-07T03:08:53.299Z,100341.13
2019-02-07T03:11:48.152Z,100335.44
2019-02-07T03:14:43.039Z,100333.09
2019-02-07T03:17:29.573Z,100330.60
2019-02-07T03:20:16.973Z,100328.30
2019-02-07T03:23:06.742Z,100328.62
2019-02-07T03:25:59.664Z,100326.09
2019-02-07T03:28:52.047Z,100323.13
2019-02-07T03:31:52.581Z,100314.09
2019-02-07T03:34:33.284Z,100313.54
2019-02-07T03:37:27.668Z,100310.76
2019-02-07T03:40:33.860Z,100311.25
2019-02-07T03:43:24.336Z,100302.66
2019-02-07T03:46:16.131Z,100308.25
2019-02-07T03:49:07.071Z,100293.47
2019-02-07T03:52:09.624Z,100287.34
2019-02-07T03:54:59.244Z,100286.62
2019-02-07T03:57:53.329Z,100282.28
2019-02-07T04:00:41.957Z,100270.69
2019-02-07T04:03:36.451Z,100271.27
2019-02-07T04:06:22.462Z,100266.98
2019-02-07T04:09:21.035Z,100260.80
2019-02-07T04:12:24.698Z,100256.25
2019-02-07T04:15:17.002Z,100257.57
2019-02-07T04:18:14.066Z,100262.50
2019-02-07T04:21:08.964Z,100259.38
2019-02-07T04:24:07.686Z,100251.94
2019-02-07T04:26:53.076Z,100259.84
2019-02-07T04:29:44.005Z,100252.95
2019-02-07T04:32:43.618Z,100251.93
2019-02-07T04:35:42.296Z,100245.37
2019-02-07T04:38:35.141Z,100241.55
2019-02-07T04:41:35.861Z,100236.59
2019-02-07T04:44:29.354Z,100237.02
2019-02-07T04:47:27.291Z,100225.23
2019-02-07T04:50:15.894Z,100226.20
2019-02-07T04:53:21.102Z,100225.55
2019-02-07T04:56:12.738Z,100215.95
2019-02-07T04:59:02.352Z,100215.17
2019-02-07T05:02:10.882Z,100217.20
2019-02-07T05:05:04.279Z,100213.13
2019-02-07T05:08:10.786Z,100204.30
2019-02-07T05:11:10.061Z,100193.55
2019-02-07T05:14:07.662Z,100200.16
2019-02-07T05:17:04.164Z,100190.56
2019-02-07T05:19:56.715Z,100191.20
2019-02-07T05:26:36.506Z,100182.05
2019-02-07T05:29:28.375Z,100169.00
2019-02-07T05:32:29.891Z,100177.73
2019-02-07T05:35:21.641Z,100170.80
2019-02-07T05:41:46.190Z,100168.16
2019-02-07T05:44:43.731Z,100161.15
2019-02-07T05:47:57.059Z,100157.55
2019-02-07T05:51:03.055Z,100157.11
2019-02-07T05:53:56.514Z,100156.13
2019-02-07T05:56:50.291Z,100149.30
2019-02-07T05:59:54.461Z,100152.91
2019-02-07T06:02:58.277Z,100151.66
2019-02-07T06:06:36.765Z,100157.16
2019-02-07T06:09:52.508Z,100143.21
2019-02-07T06:13:05.722Z,100143.86
2019-02-07T06:16:09.481Z,100136.45
2019-02-07T06:19:17.221Z,100140.99
2019-02-07T06:22:10.951Z,100140.37
2019-02-07T06:25:20.212Z,100137.03
2019-02-07T06:28:31.543Z,100136.64
2019-02-07T06:31:20.743Z,100132.20
2019-02-07T06:34:15.431Z,100125.72
2019-02-07T06:37:00.691Z,100121.38
2019-02-07T06:40:13.506Z,100116.73
2019-02-07T06:43:09.839Z,100116.40
2019-02-07T06:46:04.335Z,100115.44
2019-02-07T06:48:59.545Z,100107.02
2019-02-07T06:51:51.074Z,100106.56
2019-02-07T06:54:44.196Z,100097.54
2019-02-07T06:57:48.964Z,100095.35
2019-02-07T07:00:45.781Z,100070.95
2019-02-07T07:03:37.912Z,100061.11
2019-02-07T07:06:26.792Z,100059.45
2019-02-07T07:09:18.158Z,100049.24
2019-02-07T07:12:14.733Z,100056.84
2019-02-07T07:15:07.280Z,100043.15
2019-02-07T07:18:03.276Z,100048.62
2019-02-07T07:20:51.901Z,100051.16
2019-02-07T07:23:48.991Z,100048.89
2019-02-07T07:26:38.388Z,100043.21
2019-02-07T07:29:28.903Z,100049.09
2019-02-07T07:32:20.069Z,100052.20
2019-02-07T07:35:15.635Z,100059.66
2019-02-07T07:38:07.570Z,100056.17
2019-02-07T07:41:15.419Z,100047.34
2019-02-07T07:44:05.503Z,100048.55
2019-02-07T07:46:58.907Z,100043.34
2019-02-07T07:50:03.011Z,100043.95
2019-02-07T07:52:53.151Z,100041.20
2019-02-07T07:55:38.755Z,100036.03
2019-02-07T07:58:45.248Z,100029.17
2019-02-07T08:01:39.625Z,100021.11
2019-02-07T08:04:26.009Z,100017.52
2019-02-07T08:07:16.170Z,100020.68
2019-02-07T08:10:10.567Z,100007.72
2019-02-07T08:13:03.646Z,100002.56
2019-02-07T08:15:58.077Z,100007.23
2019-02-07T08:18:41.973Z,100005.70
2019-02-07T08:21:32.040Z,100005.38
2019-02-07T08:24:41.196Z,100001.70
2019-02-07T08:27:30.108Z,100001.56
2019-02-07T08:30:41.440Z,99999.16
2019-02-07T08:33:41.966Z,99991.34
2019-02-07T08:36:39.231Z,99966.02
2019-02-07T08:39:35.535Z,99954.05
2019-02-07T08:42:31.079Z,99956.33
2019-02-07T08:45:37.725Z,99956.38
2019-02-07T08:48:45.398Z,99964.60
2019-02-07T08:51:32.581Z,99949.14
2019-02-07T08:54:18.154Z,99937.25
2019-02-07T08:57:40.865Z,99943.35
2019-02-07T09:00:37.731Z,99937.96
2019-02-07T09:03:45.808Z,99934.11
2019-02-07T09:06:41.031Z,99934.05
2019-02-07T09:09:36.390Z,99925.20
2019-02-07T09:12:47.397Z,99920.58
2019-02-07T09:15:46.355Z,99923.16
2019-02-07T09:18:47.301Z,99928.89
2019-02-07T09:22:14.456Z,99922.86
2019-02-07T09:25:34.459Z,99933.95
2019-02-07T09:28:38.899Z,99928.80
2019-02-07T09:31:48.627Z,99925.29
2019-02-07T09:34:46.811Z,99930.98
2019-02-07T09:37:58.283Z,99927.08
2019-02-07T09:41:13.146Z,99920.51
2019-02-07T09:44:19.793Z,99941.61
2019-02-07T09:47:06.638Z,99943.70
2019-02-07T09:53:04.586Z,99936.86
2019-02-07T09:56:00.483Z,99933.47
2019-02-07T09:59:16.265Z,99944.08
2019-02-07T10:02:16.773Z,99946.53
2019-02-07T10:05:30.038Z,99946.41
2019-02-07T10:08:32.387Z,99953.24
2019-02-07T10:11:26.759Z,99941.02
2019-02-07T10:14:21.573Z,99940.31
2019-02-07T10:17:13.903Z,99942.95
2019-02-07T10:20:09.640Z,99940.75
2019-02-07T10:23:00.507Z,99949.22
2019-02-07T10:25:58.893Z,99951.05
2019-02-07T10:28:47.784Z,99947.91
2019-02-07T10:31:31.696Z,99919.95
2019-02-07T10:34:21.920Z,99914.63
2019-02-07T10:37:16.273Z,99928.23
2019-02-07T10:40:11.058Z,99915.57
2019-02-07T10:43:02.542Z,99917.87
2019-02-07T10:45:47.412Z,99907.88
2019-02-07T10:48:44.642Z,99900.52
2019-02-07T10:51:41.197Z,99903.97
2019-02-07T10:54:25.038Z,99901.26
2019-02-07T10:57:15.510Z,99904.56
2019-02-07T11:00:12.343Z,99896.32
2019-02-07T11:03:15.328Z,99891.32
2019-02-07T11:06:13.118Z,99886.11
2019-02-07T11:09:09.430Z,99884.92
2019-02-07T11:12:01.858Z,99885.02
2019-02-07T11:15:00.799Z,99875.73
2019-02-07T11:17:48.751Z,99859.97
2019-02-07T11:20:41.518Z,99867.20
2019-02-07T11:23:31.477Z,99864.95
2019-02-07T11:26:38.133Z,99865.25
2019-02-07T11:29:37.165Z,99858.13
2019-02-07T11:32:35.072Z,99852.64
2019-02-07T11:35:28.782Z,99848.30
2019-02-07T11:38:29.145Z,99844.88
2019-02-07T11:41:35.122Z,99850.66
2019-02-07T11:44:26.213Z,99849.13
2019-02-07T11:47:27.325Z,99836.50
2019-02-07T11:50:07.531Z,99832.58
2019-02-07T11:52:54.380Z,99824.69
2019-02-07T11:55:45.029Z,99820.89
2019-02-07T11:58:42.850Z,99821.38
2019-02-07T12:01:50.957Z,99815.95
2019-02-07T12:04:43.614Z,99811.12
2019-02-07T12:07:40.311Z,99809.89
2019-02-07T12:10:34.697Z,99807.83
2019-02-07T12:13:37.335Z,99794.97
2019-02-07T12:16:38.810Z,99799.14
2019-02-07T12:19:45.847Z,99793.34
2019-02-07T12:22:51.679Z,99797.03
2019-02-07T12:25:41.367Z,99794.52
2019-02-07T12:28:57.224Z,99791.80
2019-02-07T12:31:47.213Z,99788.27
2019-02-07T12:34:44.125Z,99778.88
2019-02-07T12:37:33.979Z,99785.94
2019-02-07T12:41:24.111Z,99783.76
2019-02-07T12:43:21.265Z,99784.05
2019-02-07T12:46:20.364Z,99787.59
2019-02-07T12:49:28.869Z,99797.18
2019-02-07T12:52:42.312Z,99792.30
2019-02-07T12:55:23.740Z,99793.36
2019-02-07T12:58:22.519Z,99786.80
2019-02-07T13:01:17.049Z,99773.42
2019-02-07T13:04:18.109Z,99777.78
2019-02-07T13:07:27.046Z,99795.13
2019-02-07T13:10:39.030Z,99790.27
2019-02-07T13:13:34.974Z,99786.42
2019-02-07T13:16:48.968Z,99787.05
2019-02-07T13:19:40.982Z,99797.58
2019-02-07T13:22:55.860Z,99796.00
2019-02-07T13:26:37.501Z,99797.08
2019-02-07T13:30:02.530Z,99809.05
2019-02-07T13:33:54.470Z,99813.82
2019-02-07T13:36:09.202Z,99822.19
2019-02-07T13:38:59.569Z,99821.28
2019-02-07T13:58:10.661Z,99813.09
2019-02-07T14:00:31.617Z,99814.55
2019-02-07T14:04:20.789Z,99809.50
2019-02-07T14:07:39.849Z,99816.66
2019-02-07T14:11:46.304Z,99815.73
2019-02-07T14:14:17.274Z,99819.44
2019-02-07T14:17:44.735Z,99816.80
2019-02-07T14:20:56.693Z,99807.16
2019-02-07T14:24:08.114Z,99808.41
2019-02-07T14:27:34.338Z,99805.34
2019-02-07T14:31:14.191Z,99813.44
2019-02-07T14:34:07.337Z,99815.45
2019-02-07T14:38:06.577Z,99827.42
2019-02-07T14:40:13.266Z,99825.23
2019-02-07T14:45:18.295Z,99828.05
2019-02-07T14:46:46.453Z,99824.88
2019-02-07T14:49:20.869Z,99820.06
2019-02-07T14:52:05.939Z,99828.66
2019-02-07T14:55:39.835Z,99827.30
2019-02-07T14:58:36.294Z,99814.34
2019-02-07T15:01:29.332Z,99799.58
2019-02-07T15:04:33.014Z,99808.37
2019-02-07T15:06:59.179Z,99808.50
2019-02-07T15:09:52.234Z,99807.30
2019-02-07T15:12:49.496Z,99816.61
2019-02-07T15:17:30.843Z,99820.47
2019-02-07T15:19:15.684Z,99827.67
2019-02-07T15:21:49.609Z,99822.70
2019-02-07T15:24:46.149Z,99813.66
2019-02-07T15:27:38.357Z,99819.51
2019-02-07T15:30:27.334Z,99816.88
2019-02-07T15:33:26.359Z,99811.52
2019-02-07T15:36:15.487Z,99814.20
2019-02-07T15:38:57.612Z,99817.36
2019-02-07T15:41:35.521Z,99825.89
2019-02-07T15:44:14.063Z,99822.67
2019-02-07T15:46:47.892Z,99817.30
2019-02-07T15:49:30.711Z,99825.30
2019-02-07T15:52:09.511Z,99814.75
2019-02-07T15:54:43.690Z,99813.37
2019-02-07T15:57:21.459Z,99809.09
2019-02-07T16:00:08.849Z,99813.48
2019-02-07T16:05:48.489Z,99821.41
2019-02-07T16:08:30.538Z,99815.72
2019-02-07T16:11:23.799Z,99831.78
2019-02-07T16:13:58.287Z,99841.53
2019-02-07T16:16:31.013Z,99847.44
2019-02-07T16:19:23.995Z,99853.22
2019-02-07T16:22:08.026Z,99864.17
2019-02-07T16:24:45.180Z,99851.33
2019-02-07T16:27:18.589Z,99854.13
2019-02-07T16:30:13.783Z,99853.34
2019-02-07T16:32:52.795Z,99851.32
2019-02-07T16:35:22.630Z,99849.68
2019-02-07T16:37:57.124Z,99847.17
2019-02-07T16:40:47.742Z,99850.22
2019-02-07T16:43:21.143Z,99847.25
2019-02-07T16:45:55.164Z,99855.93
2019-02-07T16:48:35.559Z,99855.77
2019-02-07T16:51:15.058Z,99853.33
2019-02-07T16:53:53.160Z,99854.74
2019-02-07T16:56:36.325Z,99848.00
2019-02-07T16:59:12.899Z,99862.08
2019-02-07T17:02:01.906Z,99865.27
2019-02-07T17:07:46.957Z,99873.56
2019-02-07T17:10:24.571Z,99876.08
2019-02-07T17:14:38.251Z,99881.85
2019-02-07T17:20:14.699Z,99888.74
2019-02-07T17:26:13.417Z,99896.41
2019-02-07T17:28:53.390Z,99897.73
2019-02-07T17:31:54.442Z,99898.71
2019-02-07T17:34:40.289Z,99895.09
2019-02-07T17:38:01.075Z,99896.15
2019-02-07T17:40:35.511Z,99902.72
2019-02-07T17:43:19.018Z,99900.59
2019-02-07T17:46:02.570Z,99906.94
2019-02-07T17:48:37.641Z,99901.29
2019-02-07T17:54:23.342Z,99902.41
2019-02-07T17:56:58.867Z,99902.81
2019-02-07T17:59:37.743Z,99911.75
2019-02-07T18:05:36.664Z,99909.02
2019-02-07T18:08:15.617Z,99915.50
2019-02-07T18:11:08.789Z,99916.93
2019-02-07T18:13:41.263Z,99931.66
2019-02-07T18:16:15.415Z,99929.29
2019-02-07T18:18:59.161Z,99934.77
2019-02-07T18:21:34.349Z,99937.69
2019-02-07T18:24:05.680Z,99946.09
2019-02-07T18:26:41.242Z,99949.06
2019-02-07T18:29:22.521Z,99958.69
2019-02-07T18:31:57.464Z,99968.25
2019-02-07T18:34:33.904Z,99976.84
2019-02-07T18:37:20.923Z,99979.58
2019-02-07T18:39:53.419Z,99971.36
2019-02-07T18:43:03.455Z,99962.61
2019-02-07T18:45:45.049Z,99972.39
2019-02-07T18:48:17.478Z,99987.29
2019-02-07T18:50:58.034Z,99998.94
2019-02-07T18:53:35.650Z,100001.52
2019-02-07T18:56:25.362Z,99993.33
2019-02-07T18:59:00.689Z,99996.48
2019-02-07T19:01:40.405Z,100009.31
2019-02-07T19:04:25.978Z,100013.39
2019-02-07T19:07:00.984Z,100011.03
2019-02-07T19:09:49.676Z,100007.61
2019-02-07T19:12:32.153Z,100011.66
2019-02-07T19:15:07.552Z,100006.42
2019-02-07T19:17:43.931Z,100013.89
2019-02-07T19:20:17.728Z,100006.77
2019-02-07T19:22:57.012Z,100004.81
2019-02-07T19:25:41.517Z,100011.22
2019-02-07T19:28:10.895Z,100011.23
2019-02-07T19:30:51.462Z,100022.20
2019-02-07T19:33:43.454Z,100016.79
2019-02-07T19:36:28.497Z,100014.75
2019-02-07T19:39:09.811Z,100027.75
2019-02-07T19:41:49.926Z,100034.30
2019-02-07T19:44:26.263Z,100032.91
2019-02-07T19:46:57.710Z,100023.45
2019-02-07T19:49:28.876Z,100027.13
2019-02-07T19:52:08.219Z,100030.78
2019-02-07T19:54:45.490Z,100019.07
2019-02-07T19:57:20.993Z,100024.52
2019-02-07T19:59:56.758Z,100030.08
2019-02-07T20:02:34.967Z,100031.98
2019-02-07T20:05:13.659Z,100032.67
2019-02-07T20:07:45.637Z,100030.41
2019-02-07T20:10:19.871Z,100031.12
2019-02-07T20:12:53.490Z,100033.22
2019-02-07T20:15:44.070Z,100045.80
2019-02-07T20:18:22.728Z,100052.08
2019-02-07T20:20:55.438Z,100054.72
2019-02-07T20:23:28.019Z,100051.86
2019-02-07T20:26:01.669Z,100049.11
2019-02-07T20:28:32.796Z,100058.79
2019-02-07T20:31:18.537Z,100060.44
2019-02-07T20:33:58.192Z,100072.02
2019-02-07T20:36:34.766Z,100071.92
2019-02-07T20:39:13.118Z,100070.59
2019-02-07T20:41:45.975Z,100075.45
2019-02-07T20:44:18.711Z,100083.20
2019-02-07T20:46:52.111Z,100088.59
2019-02-07T20:49:27.622Z,100084.92
2019-02-07T20:52:27.566Z,100081.63
2019-02-07T20:54:58.642Z,100087.00
2019-02-07T20:57:35.263Z,100077.70
2019-02-07T21:00:56.084Z,100085.36
2019-02-07T21:03:27.728Z,100088.32
2019-02-07T21:06:05.166Z,100084.41
2019-02-07T21:08:34.821Z,100083.64
2019-02-07T21:11:12.160Z,100088.01
2019-02-07T21:13:46.076Z,100088.24
2019-02-07T21:16:17.088Z,100078.52
2019-02-07T21:18:52.351Z,100090.14
2019-02-07T21:21:40.698Z,100095.20
2019-02-07T21:24:10.378Z,100093.25
2019-02-07T21:26:44.058Z,100102.73
2019-02-07T21:29:24.990Z,100109.05
2019-02-07T21:32:13.699Z,100109.58
2019-02-07T21:35:05.165Z,100112.86
2019-02-07T21:37:39.148Z,100120.34
2019-02-07T21:40:25.725Z,100119.89
2019-02-07T21:43:04.347Z,100130.12
2019-02-07T21:45:50.784Z,100133.24
2019-02-07T21:48:28.310Z,100134.23
2019-02-07T21:51:04.254Z,100128.85
2019-02-07T21:53:48.956Z,100129.88
2019-02-07T21:56:21.261Z,100130.33
2019-02-07T21:58:56.398Z,100129.18
2019-02-07T22:01:27.398Z,100134.72
2019-02-07T22:04:09.072Z,100145.05
2019-02-07T22:06:41.275Z,100141.00
2019-02-07T22:09:19.643Z,100136.70
2019-02-07T22:12:02.110Z,100144.84
2019-02-07T22:14:37.113Z,100139.44
2019-02-07T22:17:19.363Z,100146.16
2019-02-07T22:19:51.165Z,100143.65
2019-02-07T22:22:32.862Z,100137.29
2019-02-07T22:25:08.332Z,100133.92
2019-02-07T22:27:51.653Z,100139.50
2019-02-07T22:30:29.370Z,100144.23
2019-02-07T22:33:02.728Z,100145.95
2019-02-07T22:35:34.270Z,100143.44
2019-02-07T22:38:05.952Z,100148.30
2019-02-07T22:40:38.270Z,100141.10
2019-02-07T22:43:10.311Z,100149.60
2019-02-07T22:45:46.756Z,100156.20
2019-02-07T22:48:19.215Z,100154.95
2019-02-07T22:50:53.281Z,100158.34
2019-02-07T22:53:26.739Z,100160.55
2019-02-07T22:56:01.057Z,100160.92
2019-02-07T22:58:41.361Z,100162.50
2019-02-07T23:01:48.452Z,100162.25
2019-02-07T23:04:34.339Z,100168.49
2019-02-07T23:07:12.346Z,100168.06
2019-02-07T23:09:51.884Z,100174.56
2019-02-07T23:12:24.181Z,100175.97
2019-02-07T23:14:58.530Z,100177.16
2019-02-07T23:17:31.857Z,100177.39
2019-02-07T23:20:08.232Z,100167.94
2019-02-07T23:22:45.730Z,100164.09
2019-02-07T23:25:16.926Z,100167.54
2019-02-07T23:27:55.405Z,100163.89
2019-02-07T23:30:28.892Z,100163.56
2019-02-07T23:33:00.327Z,100168.72
2019-02-07T23:35:33.423Z,100165.20
2019-02-07T23:38:15.557Z,100164.98
2019-02-07T23:40:53.969Z,100175.91
2019-02-07T23:43:28.229Z,100164.59
2019-02-07T23:46:02.165Z,100171.55
2019-02-07T23:48:36.761Z,100177.23
2019-02-07T23:51:11.694Z,100173.10
2019-02-07T23:53:42.755Z,100173.88
2019-02-07T23:56:17.833Z,100184.83
2019-02-07T23:58:52.596Z,100176.16
